createdAt,value
2023-04-25T00:02:26.872Z,8.70
2023-04-25T00:04:54.797Z,10.30
2023-04-25T00:07:25.240Z,7.30
2023-04-25T00:09:52.168Z,8.50
2023-04-25T00:12:18.976Z,7.80
2023-04-25T00:14:46.958Z,9.60
2023-04-25T00:17:13.983Z,6.30
2023-04-25T00:19:40.989Z,8.00
2023-04-25T00:22:08.088Z,7.50
2023-04-25T00:24:34.896Z,8.80
2023-04-25T00:27:01.980Z,8.70
2023-04-25T00:29:28.991Z,9.20
2023-04-25T00:31:58.457Z,9.10
2023-04-25T00:34:29.876Z,9.50
2023-04-25T00:36:57.305Z,7.60
2023-04-25T00:39:24.117Z,9.40
2023-04-25T00:41:53.626Z,8.50
2023-04-25T00:44:23.627Z,9.70
2023-04-25T00:46:51.021Z,9.00
2023-04-25T00:49:19.918Z,8.60
2023-04-25T00:51:48.686Z,6.60
2023-04-25T00:54:16.716Z,6.70
2023-04-25T00:56:45.554Z,8.80
2023-04-25T00:59:16.191Z,11.30
2023-04-25T01:01:45.913Z,7.10
2023-04-25T01:04:14.122Z,6.70
2023-04-25T01:06:41.975Z,8.20
2023-04-25T01:09:08.921Z,5.20
2023-04-25T04:53:29.291Z,2.40
2023-04-25T04:56:09.719Z,2.90
2023-04-25T04:59:03.138Z,2.90
2023-04-25T06:25:56.420Z,3.30
2023-04-25T06:28:24.666Z,1.80
2023-04-25T06:30:56.011Z,2.70
2023-04-25T06:33:27.569Z,3.30
2023-04-25T06:35:56.735Z,2.70
2023-04-25T06:38:31.385Z,2.50
2023-04-25T06:41:00.419Z,2.60
2023-04-25T06:43:33.252Z,4.30
2023-04-25T06:46:17.115Z,1.90
2023-04-25T06:48:45.230Z,2.50
2023-04-25T06:51:13.618Z,3.20
2023-04-25T06:53:40.781Z,3.80
2023-04-25T06:56:12.909Z,2.90
2023-04-25T06:58:53.330Z,5.70
2023-04-25T07:01:36.539Z,8.70
2023-04-25T07:04:10.613Z,3.00
2023-04-25T07:06:45.076Z,3.40
2023-04-25T07:09:16.875Z,3.50
2023-04-25T07:11:48.694Z,5.00
2023-04-25T07:14:15.615Z,3.60
2023-04-25T07:16:44.840Z,5.10
2023-04-25T07:19:13.718Z,4.30
2023-04-25T07:21:40.662Z,4.60
2023-04-25T07:24:07.375Z,5.90
2023-04-25T07:26:41.360Z,4.40
2023-04-25T07:29:23.117Z,3.20
2023-04-25T07:31:50.098Z,5.70
2023-04-25T07:34:17.173Z,5.30
2023-04-25T07:36:46.053Z,3.20
2023-04-25T07:39:13.518Z,6.70
2023-04-25T07:41:41.171Z,3.30
2023-04-25T07:44:09.766Z,5.70
2023-04-25T07:46:37.828Z,3.40
2023-04-25T07:49:12.333Z,5.70
2023-04-25T07:51:49.780Z,4.70
2023-04-25T07:54:17.751Z,5.30
2023-04-25T07:56:53.340Z,5.50
2023-04-25T07:59:22.664Z,3.80
2023-04-25T08:01:49.970Z,7.10
2023-04-25T08:04:18.526Z,5.70
2023-04-25T08:07:06.452Z,6.10
2023-04-25T08:09:40.588Z,5.20
2023-04-25T08:12:15.272Z,3.70
2023-04-25T08:14:42.264Z,4.90
2023-04-25T08:17:16.523Z,7.80
2023-04-25T08:19:43.730Z,3.70
2023-04-25T08:22:16.583Z,4.90
2023-04-25T08:24:51.949Z,6.80
2023-04-25T08:27:19.930Z,3.50
2023-04-25T08:29:47.291Z,4.30
2023-04-25T08:32:14.798Z,3.50
2023-04-25T08:34:51.892Z,3.60
2023-04-25T08:37:20.187Z,4.90
2023-04-25T08:40:16.045Z,4.50
2023-04-25T08:42:47.889Z,4.80
2023-04-25T08:45:15.257Z,6.50
2023-04-25T09:11:24.566Z,7.00
2023-04-25T09:14:21.179Z,5.00
2023-04-25T10:34:43.523Z,3.80
2023-04-25T11:04:36.040Z,6.60
2023-04-25T11:07:06.931Z,9.70
2023-04-25T11:09:42.540Z,7.40
2023-04-25T11:12:12.754Z,5.80
2023-04-25T11:14:43.496Z,6.20
2023-04-25T11:17:11.515Z,8.90
2023-04-25T11:19:42.596Z,5.40
2023-04-25T11:22:11.138Z,6.80
2023-04-25T11:24:43.009Z,5.10
2023-04-25T11:27:09.964Z,8.10
2023-04-25T11:29:36.998Z,6.00
2023-04-25T11:32:04.494Z,5.20
2023-04-25T11:34:33.192Z,7.30
2023-04-25T11:37:01.083Z,6.40
2023-04-25T11:39:30.526Z,8.90
2023-04-25T11:41:57.407Z,6.30
2023-04-25T11:44:24.119Z,4.80
2023-04-25T11:46:51.090Z,5.70
2023-04-25T11:49:18.569Z,6.00
2023-04-25T11:51:52.987Z,5.80
2023-04-25T11:54:20.098Z,6.50
2023-04-25T11:56:49.037Z,6.50
2023-04-25T13:54:28.116Z,6.00
2023-04-25T13:56:59.029Z,4.30
2023-04-25T13:59:28.666Z,5.90
2023-04-25T14:01:58.265Z,4.20
2023-04-25T14:04:25.593Z,4.30
2023-04-25T14:06:55.662Z,10.60
2023-04-25T14:09:27.758Z,4.60
2023-04-25T14:12:02.775Z,4.70
2023-04-25T14:14:31.683Z,6.00
2023-04-25T14:17:03.007Z,4.00
2023-04-25T14:19:32.414Z,6.00
2023-04-25T14:22:01.905Z,8.80
2023-04-25T14:24:30.909Z,6.20
2023-04-25T14:26:59.809Z,5.30
2023-04-25T14:29:31.299Z,6.80
2023-04-25T14:32:01.384Z,7.20
2023-04-25T14:34:28.215Z,5.40
2023-04-25T14:37:00.599Z,3.40
2023-04-25T14:39:27.135Z,5.00
2023-04-25T14:41:58.349Z,5.40
2023-04-25T14:44:30.140Z,4.80
2023-04-25T14:46:59.845Z,4.70
2023-04-25T14:49:28.480Z,7.80
2023-04-25T14:51:57.929Z,8.70
2023-04-25T14:54:27.731Z,6.40
2023-04-25T14:56:58.203Z,2.80
2023-04-25T14:59:30.397Z,4.30
2023-04-25T16:51:00.919Z,9.70
2023-04-25T16:53:27.543Z,6.40
2023-04-25T16:55:56.585Z,7.70
2023-04-25T16:58:24.218Z,8.20
2023-04-25T17:00:53.131Z,6.60
2023-04-25T17:03:21.203Z,8.20
2023-04-25T17:05:56.093Z,7.40
2023-04-25T17:08:24.833Z,7.70
2023-04-25T17:10:52.325Z,9.10
2023-04-25T17:13:30.546Z,9.10
2023-04-25T17:16:10.259Z,10.60
2023-04-25T17:18:39.422Z,9.80
2023-04-25T17:21:06.606Z,9.90
2023-04-25T17:23:35.459Z,8.70
2023-04-25T17:26:02.615Z,7.70
2023-04-25T17:28:29.516Z,10.80
2023-04-25T17:30:58.083Z,10.30
2023-04-25T17:33:44.813Z,11.70
2023-04-25T17:36:14.417Z,10.40
2023-04-25T17:38:41.282Z,18.90
2023-04-25T17:41:10.147Z,16.50
2023-04-25T17:43:37.124Z,17.00
2023-04-25T17:46:04.111Z,15.90
2023-04-25T17:48:31.201Z,18.50
2023-04-25T17:51:03.128Z,13.90
2023-04-25T17:53:32.660Z,11.90
2023-04-25T17:56:03.989Z,13.70
2023-04-25T17:58:32.846Z,16.50
2023-04-25T18:01:04.783Z,13.40
2023-04-25T18:03:34.078Z,12.80
2023-04-25T18:06:04.174Z,14.70
2023-04-25T18:08:33.711Z,16.50
2023-04-25T18:11:00.779Z,10.90
2023-04-25T18:13:30.241Z,13.00
2023-04-25T18:16:00.224Z,11.30
2023-04-25T18:18:33.648Z,15.90
2023-04-25T18:21:08.501Z,14.00
2023-04-25T18:23:46.405Z,10.40
2023-04-25T18:26:16.640Z,12.10
2023-04-25T18:28:45.000Z,12.40
2023-04-25T18:31:13.390Z,13.20
2023-04-25T18:33:42.132Z,11.50
2023-04-25T18:36:09.846Z,10.70
2023-04-25T21:08:05.255Z,11.50
2023-04-25T21:10:37.285Z,8.70
2023-04-25T21:13:04.579Z,12.40
2023-04-25T21:15:33.695Z,12.40
2023-04-25T21:18:01.272Z,12.00
2023-04-25T21:20:30.074Z,10.50
2023-04-25T21:22:56.735Z,12.40
2023-04-25T21:25:30.410Z,14.00
2023-04-25T21:27:58.132Z,12.80
2023-04-25T21:30:28.070Z,10.60
2023-04-25T22:52:22.914Z,9.70
